Time;durP1;ratioP1;P1;durP2;ratioP2;P2;SDS_P1;SDS_P2;PMS_P1;PMS_P2;Temp;Humidity;BMP_temperature;BMP_pressure;BME280_temperature;BME280_humidity;BME280_pressure;Samples;Min_cycle;Max_cycle;Signal;HPM_P1;HPM_P2
2023/09/23 00:02:25;;;;;;;;;;;;;;;14.91;73.13;100182.42;104690;1295;61266;-58
2023/09/23 00:05:15;;;;;;;;;;;;;;;14.91;73.08;100186.06;104725;1292;62136;-57
2023/09/23 00:08:01;;;;;;;;;;;;;;;14.92;74.41;100191.25;104784;1292;73187;-57
2023/09/23 00:10:50;;;;;;;;;;;;;;;14.91;75.64;100183.30;104822;1292;67118;-57
2023/09/23 00:13:37;;;;;;;;;;;;;;;14.88;73.76;100179.77;104813;1292;70451;-57
2023/09/23 00:16:23;;;;;;;;;;;;;;;14.89;73.80;100177.11;104849;1292;61681;-57
2023/09/23 00:19:09;;;;;;;;;;;;;;;14.89;73.82;100179.91;104799;1291;59544;-58
2023/09/23 00:21:56;;;;;;;;;;;;;;;14.87;73.55;100181.00;104817;1295;73202;-57
2023/09/23 00:24:42;;;;;;;;;;;;;;;14.86;73.20;100168.91;104743;1292;69048;-57
2023/09/23 00:27:28;;;;;;;;;;;;;;;14.87;73.63;100168.71;104815;1294;71260;-57
2023/09/23 00:30:14;;;;;;;;;;;;;;;14.86;73.41;100158.67;104775;1294;61282;-58
2023/09/23 00:33:01;;;;;;;;;;;;;;;14.87;73.96;100151.71;104865;1292;61308;-57
2023/09/23 00:35:47;;;;;;;;;;;;;;;14.86;74.04;100146.71;104793;1294;75975;-56
2023/09/23 00:38:33;;;;;;;;;;;;;;;14.85;74.10;100141.02;104828;1293;70055;-57
2023/09/23 00:41:19;;;;;;;;;;;;;;;14.83;74.09;100128.41;106109;1292;71227;-58
2023/09/23 00:44:05;;;;;;;;;;;;;;;14.83;74.06;100118.56;106070;1292;60570;-58
2023/09/23 00:46:51;;;;;;;;;;;;;;;14.82;74.10;100116.50;106145;1292;60809;-58
2023/09/23 00:49:37;;;;;;;;;;;;;;;14.82;74.16;100114.08;106124;1292;73652;-58
2023/09/23 00:52:23;;;;;;;;;;;;;;;14.81;74.03;100115.52;106130;1292;67433;-58
2023/09/23 00:55:10;;;;;;;;;;;;;;;14.81;73.42;100120.54;106083;1291;71175;-58
2023/09/23 00:58:00;;;;;;;;;;;;;;;14.77;74.46;100130.39;105189;1291;60423;-58
2023/09/23 01:00:47;;;;;;;;;;;;;;;14.67;74.24;100147.83;104838;1292;62826;-57
2023/09/23 01:03:33;;;;;;;;;;;;;;;14.61;74.16;100158.14;104815;1294;76048;-58
2023/09/23 01:06:21;;;;;;;;;;;;;;;14.59;74.05;100163.74;104863;1292;68929;-58
2023/09/23 01:09:14;;;;;;;;;;;;;;;14.59;74.32;100161.85;104867;1292;71299;-58
2023/09/23 01:12:01;;;;;;;;;;;;;;;14.60;74.30;100168.91;104753;1293;61282;-58
2023/09/23 01:14:48;;;;;;;;;;;;;;;14.61;74.55;100194.41;104841;1291;59281;-58
2023/09/23 01:17:34;;;;;;;;;;;;;;;14.58;74.00;100199.33;104900;1293;73388;-58
2023/09/23 01:20:21;;;;;;;;;;;;;;;14.58;74.32;100201.95;104823;1290;68320;-58
2023/09/23 01:23:07;;;;;;;;;;;;;;;14.56;74.29;100200.80;104824;1294;72273;-58
2023/09/23 01:25:53;;;;;;;;;;;;;;;14.54;74.79;100183.41;104880;1293;61291;-59
2023/09/23 01:28:39;;;;;;;;;;;;;;;14.51;74.85;100179.02;104804;1291;61854;-56
2023/09/23 01:31:29;;;;;;;;;;;;;;;14.47;74.45;100182.63;104883;1292;73257;-58
2023/09/23 01:34:15;;;;;;;;;;;;;;;14.44;74.73;100181.02;104837;1291;69972;-57
2023/09/23 01:37:01;;;;;;;;;;;;;;;14.40;74.54;100165.21;104821;1297;72056;-56
2023/09/23 01:39:48;;;;;;;;;;;;;;;14.37;74.67;100153.18;104853;1292;62020;-59
2023/09/23 01:42:35;;;;;;;;;;;;;;;14.31;74.70;100154.61;104779;1297;61555;-57
2023/09/23 01:45:22;;;;;;;;;;;;;;;14.25;74.77;100155.70;104824;1294;76007;-57
2023/09/23 01:48:08;;;;;;;;;;;;;;;14.20;74.13;100159.05;104881;1291;68689;-56
2023/09/23 01:50:54;;;;;;;;;;;;;;;14.11;74.61;100157.83;104790;1297;71572;-57
2023/09/23 01:53:40;;;;;;;;;;;;;;;14.05;74.68;100160.81;104788;1292;61844;-56
2023/09/23 01:56:26;;;;;;;;;;;;;;;14.00;74.54;100162.59;104804;1295;61298;-57
2023/09/23 01:59:12;;;;;;;;;;;;;;;13.94;74.27;100157.09;104851;1291;76036;-58
2023/09/23 02:01:59;;;;;;;;;;;;;;;13.84;74.06;100154.70;104835;1292;71288;-57
2023/09/23 02:04:47;;;;;;;;;;;;;;;13.79;74.07;100167.50;104833;1292;71349;-58
2023/09/23 02:07:33;;;;;;;;;;;;;;;13.72;74.35;100190.30;106131;1292;59364;-58
2023/09/23 02:10:24;;;;;;;;;;;;;;;13.68;74.75;100184.20;106157;1292;59074;-58
2023/09/23 02:13:10;;;;;;;;;;;;;;;13.72;74.99;100176.25;106163;1292;72857;-58
2023/09/23 02:15:57;;;;;;;;;;;;;;;13.76;74.88;100180.44;106121;1292;67292;-57
2023/09/23 02:18:45;;;;;;;;;;;;;;;13.77;74.99;100176.77;106110;1291;73120;-58
2023/09/23 02:21:31;;;;;;;;;;;;;;;13.76;74.80;100165.36;106143;1291;59437;-58
2023/09/23 02:24:18;;;;;;;;;;;;;;;13.78;74.95;100151.45;106114;1291;60004;-58
2023/09/23 02:27:04;;;;;;;;;;;;;;;13.78;74.87;100148.83;106125;1291;75222;-57
2023/09/23 02:29:50;;;;;;;;;;;;;;;13.75;74.50;100166.46;106153;1292;67345;-58
2023/09/23 02:32:38;;;;;;;;;;;;;;;13.71;74.43;100174.91;106142;1292;72557;-57
2023/09/23 02:35:25;;;;;;;;;;;;;;;13.64;74.66;100178.81;106108;1295;59352;-57
2023/09/23 02:38:10;;;;;;;;;;;;;;;13.55;75.00;100170.96;106129;1291;58586;-58
2023/09/23 02:41:00;;;;;;;;;;;;;;;13.53;75.05;100155.80;106142;1291;73390;-58
2023/09/23 02:43:47;;;;;;;;;;;;;;;13.54;75.11;100151.95;106136;1291;67437;-58
2023/09/23 02:46:32;;;;;;;;;;;;;;;13.57;75.26;100158.09;106177;1291;73124;-58
2023/09/23 02:49:19;;;;;;;;;;;;;;;13.60;75.09;100160.75;106119;1291;59498;-57
2023/09/23 02:52:06;;;;;;;;;;;;;;;13.59;75.34;100153.00;106151;1290;58826;-58
2023/09/23 02:54:54;;;;;;;;;;;;;;;13.59;75.20;100162.18;106114;1291;74524;-58
2023/09/23 02:57:41;;;;;;;;;;;;;;;13.55;75.21;100163.00;106121;1292;67728;-58
2023/09/23 03:00:30;;;;;;;;;;;;;;;13.54;74.97;100163.20;106126;1292;72397;-58
2023/09/23 03:03:19;;;;;;;;;;;;;;;13.51;75.03;100156.76;106123;1292;59246;-57
2023/09/23 03:06:06;;;;;;;;;;;;;;;13.46;75.21;100162.30;106145;1291;59663;-58
2023/09/23 03:08:54;;;;;;;;;;;;;;;13.42;75.11;100179.58;106184;1292;74458;-57
2023/09/23 03:11:48;;;;;;;;;;;;;;;13.39;75.06;100188.19;106133;1291;66457;-58
2023/09/23 03:14:38;;;;;;;;;;;;;;;13.38;75.52;100196.52;106144;1291;72245;-57
2023/09/23 03:17:24;;;;;;;;;;;;;;;13.37;75.50;100198.98;106082;1291;58460;-58
2023/09/23 03:20:11;;;;;;;;;;;;;;;13.34;74.99;100202.57;106149;1291;58922;-58
2023/09/23 03:22:57;;;;;;;;;;;;;;;13.27;74.84;100212.67;106156;1291;73427;-58
2023/09/23 03:25:47;;;;;;;;;;;;;;;13.20;75.06;100222.57;106112;1292;67536;-58
2023/09/23 03:28:33;;;;;;;;;;;;;;;13.15;75.06;100228.60;106117;1294;71883;-58
2023/09/23 03:31:19;;;;;;;;;;;;;;;13.15;75.30;100224.80;106108;1292;59335;-58
2023/09/23 03:34:05;;;;;;;;;;;;;;;13.14;75.46;100222.77;106100;1292;60998;-58
2023/09/23 03:36:53;;;;;;;;;;;;;;;13.14;75.38;100227.77;105361;1290;73367;-57
2023/09/23 03:39:40;;;;;;;;;;;;;;;13.09;75.53;100232.95;104798;1291;67260;-58
2023/09/23 03:42:27;;;;;;;;;;;;;;;13.04;75.52;100238.98;104787;1294;74042;-57
2023/09/23 03:45:15;;;;;;;;;;;;;;;13.01;75.49;100239.27;104801;1291;61176;-56
2023/09/23 03:48:01;;;;;;;;;;;;;;;12.98;75.86;100237.83;104827;1292;61404;-57
2023/09/23 03:50:51;;;;;;;;;;;;;;;12.94;75.87;100242.10;104740;1294;76488;-57
2023/09/23 03:53:38;;;;;;;;;;;;;;;12.92;75.45;100252.73;104741;1294;68071;-57
2023/09/23 03:56:24;;;;;;;;;;;;;;;12.89;75.70;100252.65;104773;1295;71231;-57
2023/09/23 03:59:10;;;;;;;;;;;;;;;12.84;75.89;100250.20;104650;1297;61180;-58
2023/09/23 04:01:56;;;;;;;;;;;;;;;12.79;75.80;100248.81;104771;1292;61143;-57
2023/09/23 04:04:48;;;;;;;;;;;;;;;12.70;75.83;100244.77;104806;1292;74908;-57
2023/09/23 04:07:35;;;;;;;;;;;;;;;12.61;75.61;100246.93;104809;1292;68225;-57
2023/09/23 04:10:23;;;;;;;;;;;;;;;12.52;75.44;100253.78;104767;1292;71267;-57
2023/09/23 04:13:10;;;;;;;;;;;;;;;12.42;75.69;100250.81;104755;1291;61186;-57
2023/09/23 04:16:00;;;;;;;;;;;;;;;12.33;75.42;100252.64;104825;1292;61362;-57
2023/09/23 04:18:51;;;;;;;;;;;;;;;12.25;75.41;100248.71;106079;1292;73603;-58
2023/09/23 04:21:37;;;;;;;;;;;;;;;12.23;75.55;100250.84;106093;1291;67133;-57
2023/09/23 04:24:23;;;;;;;;;;;;;;;12.16;75.48;100255.02;106104;1290;71421;-56
2023/09/23 04:27:10;;;;;;;;;;;;;;;12.11;75.47;100263.98;106129;1291;59313;-57
2023/09/23 04:29:56;;;;;;;;;;;;;;;12.01;75.39;100272.21;106120;1291;59009;-58
2023/09/23 04:32:42;;;;;;;;;;;;;;;11.90;75.50;100280.45;106102;1292;74462;-56
2023/09/23 04:35:29;;;;;;;;;;;;;;;11.87;75.59;100292.11;106159;1291;68644;-58
2023/09/23 04:38:15;;;;;;;;;;;;;;;11.87;75.52;100297.11;106092;1291;70149;-57
2023/09/23 04:41:01;;;;;;;;;;;;;;;11.90;76.03;100297.56;105132;1295;61232;-57
2023/09/23 04:43:47;;;;;;;;;;;;;;;11.89;75.69;100297.23;104758;1292;61225;-57
2023/09/23 04:46:34;;;;;;;;;;;;;;;11.88;75.69;100303.83;104785;1291;77340;-57
2023/09/23 04:49:20;;;;;;;;;;;;;;;11.87;75.69;100305.27;104825;1292;67162;-57
2023/09/23 04:52:06;;;;;;;;;;;;;;;11.84;75.60;100307.21;104827;1292;75013;-56
2023/09/23 04:54:53;;;;;;;;;;;;;;;11.81;75.87;100308.15;104851;1292;61233;-56
2023/09/23 04:57:39;;;;;;;;;;;;;;;11.79;75.91;100310.10;104735;1294;61298;-57
2023/09/23 05:00:26;;;;;;;;;;;;;;;11.78;76.12;100297.89;104763;1291;73525;-57
2023/09/23 05:03:12;;;;;;;;;;;;;;;11.77;75.90;100296.87;104709;1292;67000;-57
2023/09/23 05:05:59;;;;;;;;;;;;;;;11.75;76.13;100302.42;104658;1292;74387;-57
2023/09/23 05:08:45;;;;;;;;;;;;;;;11.74;76.14;100298.65;104753;1292;61259;-56
2023/09/23 05:11:32;;;;;;;;;;;;;;;11.73;76.10;100302.46;104760;1292;61233;-55
2023/09/23 05:14:18;;;;;;;;;;;;;;;11.73;75.82;100307.81;104707;1292;73434;-57
2023/09/23 05:17:04;;;;;;;;;;;;;;;11.73;76.00;100315.95;104761;1292;67401;-60
2023/09/23 05:19:50;;;;;;;;;;;;;;;11.71;76.22;100326.88;104492;1292;478611;-59
2023/09/23 05:22:36;;;;;;;;;;;;;;;11.72;76.29;100324.77;104880;1291;61144;-59
2023/09/23 05:25:24;;;;;;;;;;;;;;;11.75;76.52;100324.19;104724;1291;61502;-59
2023/09/23 05:28:10;;;;;;;;;;;;;;;11.77;76.67;100324.84;104791;1294;74442;-59
2023/09/23 05:30:58;;;;;;;;;;;;;;;11.79;76.60;100322.04;104786;1292;67624;-59
2023/09/23 05:33:44;;;;;;;;;;;;;;;11.81;76.52;100319.05;104753;1292;74130;-60
2023/09/23 05:36:31;;;;;;;;;;;;;;;11.84;76.27;100318.27;104728;1292;62312;-59
2023/09/23 05:39:20;;;;;;;;;;;;;;;11.88;76.40;100326.64;104840;1292;61150;-60
2023/09/23 05:42:07;;;;;;;;;;;;;;;11.96;76.79;100322.10;104714;1291;73234;-60
2023/09/23 05:44:53;;;;;;;;;;;;;;;12.04;76.64;100331.04;104747;1292;71430;-60
2023/09/23 05:47:40;;;;;;;;;;;;;;;12.12;76.72;100339.98;104763;1291;71386;-58
2023/09/23 05:50:26;;;;;;;;;;;;;;;12.19;76.58;100350.14;104774;1292;61291;-59
2023/09/23 05:53:12;;;;;;;;;;;;;;;12.28;76.65;100360.11;104764;1297;61544;-59
2023/09/23 05:55:59;;;;;;;;;;;;;;;12.33;76.47;100360.66;104807;1291;73662;-59
2023/09/23 05:58:46;;;;;;;;;;;;;;;12.36;76.61;100360.92;104757;1295;67345;-59
2023/09/23 06:01:33;;;;;;;;;;;;;;;12.46;76.86;100360.83;104787;1294;74442;-59
2023/09/23 06:04:19;;;;;;;;;;;;;;;12.52;76.46;100355.44;104800;1292;61267;-58
2023/09/23 06:07:06;;;;;;;;;;;;;;;12.60;76.67;100353.13;104786;1293;61237;-59
2023/09/23 06:09:52;;;;;;;;;;;;;;;12.73;76.69;100361.42;104684;1292;74854;-60
2023/09/23 06:12:38;;;;;;;;;;;;;;;12.83;76.68;100363.73;104639;1292;66873;-59
2023/09/23 06:15:26;;;;;;;;;;;;;;;12.98;76.82;100360.15;104613;1292;71283;-59
2023/09/23 06:18:12;;;;;;;;;;;;;;;13.24;77.19;100371.49;104682;1292;61191;-58
2023/09/23 06:21:02;;;;;;;;;;;;;;;13.45;77.04;100378.10;104756;1292;61248;-58
2023/09/23 06:23:48;;;;;;;;;;;;;;;13.71;77.54;100382.10;104661;1292;73289;-58
2023/09/23 06:26:34;;;;;;;;;;;;;;;14.04;77.12;100376.67;104688;1294;67212;-57
2023/09/23 06:29:21;;;;;;;;;;;;;;;14.44;77.46;100370.75;104670;1292;76230;-58
2023/09/23 06:32:07;;;;;;;;;;;;;;;14.80;77.10;100370.77;104625;1295;63151;-57
2023/09/23 06:34:53;;;;;;;;;;;;;;;15.15;77.60;100367.52;104696;1292;61209;-57
2023/09/23 06:37:40;;;;;;;;;;;;;;;15.36;77.13;100376.44;104690;1292;73279;-57
2023/09/23 06:40:26;;;;;;;;;;;;;;;15.76;77.62;100380.72;104672;1293;68441;-57
2023/09/23 06:43:12;;;;;;;;;;;;;;;16.02;77.02;100382.62;104728;1292;72056;-57
2023/09/23 06:45:58;;;;;;;;;;;;;;;16.03;77.05;100384.98;104659;1294;61028;-57
2023/09/23 06:48:44;;;;;;;;;;;;;;;16.21;76.90;100384.38;104746;1292;61379;-57
2023/09/23 06:51:31;;;;;;;;;;;;;;;16.44;77.15;100388.23;104755;1292;74846;-57
2023/09/23 06:54:17;;;;;;;;;;;;;;;16.67;76.63;100387.77;104741;1294;69322;-56
2023/09/23 06:57:03;;;;;;;;;;;;;;;16.61;76.38;100389.45;104730;1292;71949;-56
2023/09/23 06:59:50;;;;;;;;;;;;;;;16.57;76.58;100393.77;104691;1292;61259;-56
2023/09/23 07:02:36;;;;;;;;;;;;;;;16.45;76.52;100397.77;104737;1292;61134;-56
2023/09/23 07:05:22;;;;;;;;;;;;;;;16.28;76.48;100396.77;104711;1293;73318;-56
2023/09/23 07:08:09;;;;;;;;;;;;;;;16.23;76.75;100399.42;104726;1292;67109;-56
2023/09/23 07:10:55;;;;;;;;;;;;;;;16.29;76.81;100405.80;104775;1290;71254;-56
2023/09/23 07:13:41;;;;;;;;;;;;;;;16.33;76.90;100411.36;104763;1292;62873;-56
2023/09/23 07:16:27;;;;;;;;;;;;;;;16.37;76.68;100418.34;104829;1292;61209;-56
2023/09/23 07:19:13;;;;;;;;;;;;;;;16.35;76.62;100433.54;104801;1292;72351;-56
2023/09/23 07:22:00;;;;;;;;;;;;;;;16.39;76.75;100440.13;104852;1292;67199;-56
2023/09/23 07:24:46;;;;;;;;;;;;;;;16.55;76.76;100445.91;104824;1292;71269;-55
2023/09/23 07:27:32;;;;;;;;;;;;;;;16.69;76.75;100445.45;104813;1290;61212;-56
2023/09/23 07:30:18;;;;;;;;;;;;;;;16.80;76.60;100445.64;104837;1292;61350;-55
2023/09/23 07:33:04;;;;;;;;;;;;;;;16.76;76.38;100450.56;104860;1291;74085;-56
2023/09/23 07:35:51;;;;;;;;;;;;;;;16.73;76.65;100453.61;104828;1291;67376;-55
2023/09/23 07:38:37;;;;;;;;;;;;;;;16.81;76.72;100459.55;104793;1291;71626;-57
2023/09/23 07:41:23;;;;;;;;;;;;;;;16.85;76.51;100467.39;104864;1291;61138;-56
2023/09/23 07:44:11;;;;;;;;;;;;;;;16.94;76.43;100473.77;104818;1292;61175;-55
2023/09/23 07:46:57;;;;;;;;;;;;;;;17.24;76.38;100479.35;104840;1292;75761;-56
2023/09/23 07:49:43;;;;;;;;;;;;;;;17.61;75.85;100487.08;104800;1291;69894;-57
2023/09/23 07:52:30;;;;;;;;;;;;;;;17.96;75.96;100491.83;104813;1294;71958;-55
2023/09/23 07:55:16;;;;;;;;;;;;;;;18.39;75.87;100496.84;104766;1292;61559;-57
2023/09/23 07:58:02;;;;;;;;;;;;;;;18.76;75.68;100498.42;104836;1292;61256;-56
2023/09/23 08:00:48;;;;;;;;;;;;;;;18.77;74.85;100494.20;106095;1292;73206;-57
2023/09/23 08:03:34;;;;;;;;;;;;;;;18.75;75.88;100488.17;106134;1291;67224;-57
2023/09/23 08:06:20;;;;;;;;;;;;;;;18.76;75.74;100476.27;106097;1291;71299;-57
2023/09/23 08:09:06;;;;;;;;;;;;;;;18.69;74.77;100469.67;106148;1291;59012;-58
2023/09/23 08:11:52;;;;;;;;;;;;;;;18.55;75.20;100476.81;106127;1291;59905;-58
2023/09/23 08:14:38;;;;;;;;;;;;;;;18.36;74.66;100476.04;106103;1291;73279;-56
2023/09/23 08:17:23;;;;;;;;;;;;;;;18.41;75.42;100479.98;106098;1292;67244;-58
2023/09/23 08:20:23;;;;;;;;;;;;;;;18.69;75.37;100485.73;106057;1292;72586;-57
2023/09/23 08:23:09;;;;;;;;;;;;;;;18.87;74.78;100490.34;98740;1291;10002518;-58
2023/09/23 08:25:56;;;;;;;;;;;;;;;19.03;74.09;100493.02;106124;1291;72621;-56
2023/09/23 08:28:42;;;;;;;;;;;;;;;19.11;74.57;100495.87;106141;1291;67243;-58
2023/09/23 08:31:28;;;;;;;;;;;;;;;19.29;73.97;100509.23;106172;1291;71169;-58
2023/09/23 08:34:14;;;;;;;;;;;;;;;19.22;74.04;100514.19;106107;1291;59386;-58
2023/09/23 08:37:00;;;;;;;;;;;;;;;19.13;73.09;100523.20;106157;1291;59209;-58
2023/09/23 08:39:46;;;;;;;;;;;;;;;18.80;72.62;100529.14;106113;1292;73507;-58
2023/09/23 08:42:33;;;;;;;;;;;;;;;18.35;73.24;100529.64;106137;1291;70492;-58
2023/09/23 08:45:21;;;;;;;;;;;;;;;18.22;73.77;100529.10;106145;1291;72287;-57
2023/09/23 08:48:07;;;;;;;;;;;;;;;17.98;73.38;100532.73;106143;1291;58868;-58
2023/09/23 08:50:53;;;;;;;;;;;;;;;17.62;73.46;100535.65;106021;1291;59963;-57
2023/09/23 08:53:39;;;;;;;;;;;;;;;17.40;73.66;100535.98;106035;1291;73466;-59
2023/09/23 08:56:25;;;;;;;;;;;;;;;17.23;73.80;100537.95;105927;1292;67433;-58
2023/09/23 08:59:11;;;;;;;;;;;;;;;17.07;73.61;100537.62;105987;1291;71187;-58
2023/09/23 09:01:57;;;;;;;;;;;;;;;17.01;73.93;100540.01;105997;1291;59428;-58
2023/09/23 09:04:43;;;;;;;;;;;;;;;17.02;73.97;100536.12;106022;1291;58997;-58
2023/09/23 09:07:33;;;;;;;;;;;;;;;16.99;73.79;100542.19;106028;1291;75956;-58
2023/09/23 09:10:19;;;;;;;;;;;;;;;17.10;73.87;100550.04;106140;1291;68289;-57
2023/09/23 09:13:06;;;;;;;;;;;;;;;17.25;74.12;100555.27;106072;1291;72609;-58
2023/09/23 09:15:53;;;;;;;;;;;;;;;17.44;73.44;100559.27;106074;1291;58317;-58
2023/09/23 09:18:39;;;;;;;;;;;;;;;17.45;73.49;100560.46;106106;1291;60011;-59
2023/09/23 09:21:26;;;;;;;;;;;;;;;17.57;73.43;100566.56;106092;1291;73406;-59
2023/09/23 09:24:12;;;;;;;;;;;;;;;17.50;73.17;100576.61;106084;1291;67614;-59
2023/09/23 09:26:58;;;;;;;;;;;;;;;17.45;73.42;100571.09;106096;1290;71437;-58
2023/09/23 09:29:44;;;;;;;;;;;;;;;17.59;73.13;100564.36;106097;1292;59068;-59
2023/09/23 09:32:30;;;;;;;;;;;;;;;17.86;72.93;100565.55;106119;1291;59536;-58
2023/09/23 09:35:17;;;;;;;;;;;;;;;18.17;73.09;100571.56;106047;1291;72169;-58
2023/09/23 09:38:06;;;;;;;;;;;;;;;18.40;72.36;100570.64;106143;1291;67268;-58
2023/09/23 09:40:56;;;;;;;;;;;;;;;18.52;72.16;100568.98;106107;1290;72531;-58
2023/09/23 09:43:45;;;;;;;;;;;;;;;18.79;73.03;100572.88;106124;1291;59378;-58
2023/09/23 09:46:30;;;;;;;;;;;;;;;19.02;71.33;100569.24;106132;1292;59042;-58
2023/09/23 09:49:17;;;;;;;;;;;;;;;18.87;70.61;100567.02;106151;1292;73231;-57
2023/09/23 09:52:03;;;;;;;;;;;;;;;18.67;70.80;100574.86;106148;1291;67452;-58
2023/09/23 09:54:56;;;;;;;;;;;;;;;18.48;70.97;100577.88;105217;1291;72390;-57
2023/09/23 09:57:43;;;;;;;;;;;;;;;18.27;71.16;100582.25;104759;1292;62315;-56
2023/09/23 10:00:33;;;;;;;;;;;;;;;18.33;71.68;100584.56;104887;1291;61155;-61
2023/09/23 10:03:23;;;;;;;;;;;;;;;18.33;70.64;100583.54;104816;1291;75064;-58
2023/09/23 10:06:15;;;;;;;;;;;;;;;18.09;70.63;100580.69;104769;1291;67191;-57
2023/09/23 10:09:13;;;;;;;;;;;;;;;18.29;71.39;100579.37;104712;1291;75408;-58
2023/09/23 10:12:01;;;;;;;;;;;;;;;19.03;71.12;100573.87;104764;1292;61288;-56
2023/09/23 10:14:52;;;;;;;;;;;;;;;19.83;70.91;100578.49;104761;1294;61164;-57
2023/09/23 10:17:41;;;;;;;;;;;;;;;20.45;69.14;100577.13;104691;1290;74268;-56
2023/09/23 10:20:33;;;;;;;;;;;;;;;20.65;68.48;100575.95;104759;1291;72617;-59
2023/09/23 10:23:20;;;;;;;;;;;;;;;21.42;67.02;100577.63;104753;1294;76930;-57
2023/09/23 10:26:18;;;;;;;;;;;;;;;21.39;64.53;100576.25;104768;1291;61269;-57
2023/09/23 10:29:05;;;;;;;;;;;;;;;20.97;65.70;100579.63;104754;1292;61298;-57
2023/09/23 10:31:51;;;;;;;;;;;;;;;20.71;66.23;100583.84;104785;1292;73497;-57
2023/09/23 10:34:45;;;;;;;;;;;;;;;20.49;66.78;100581.98;104718;1292;67593;-57
2023/09/23 10:37:32;;;;;;;;;;;;;;;20.82;66.06;100571.48;104874;1291;71088;-56
2023/09/23 10:40:19;;;;;;;;;;;;;;;21.05;63.46;100571.28;104853;1291;61349;-55
2023/09/23 10:43:08;;;;;;;;;;;;;;;20.88;64.87;100574.95;104831;1292;61195;-57
2023/09/23 10:45:56;;;;;;;;;;;;;;;20.82;64.40;100577.73;104822;1291;75437;-57
2023/09/23 10:48:44;;;;;;;;;;;;;;;20.78;65.51;100582.70;104832;1291;67244;-57
2023/09/23 10:51:32;;;;;;;;;;;;;;;20.51;64.34;100586.79;104762;1291;71387;-57
2023/09/23 10:54:20;;;;;;;;;;;;;;;20.14;65.36;100590.08;104825;1291;61146;-57
2023/09/23 10:57:06;;;;;;;;;;;;;;;19.91;64.82;100584.91;104879;1292;61265;-56
2023/09/23 10:59:53;;;;;;;;;;;;;;;19.90;64.15;100589.39;104898;1291;76044;-57
2023/09/23 11:02:42;;;;;;;;;;;;;;;19.84;65.09;100591.26;104680;1291;67235;-58
2023/09/23 11:05:28;;;;;;;;;;;;;;;19.85;63.90;100596.10;104787;1292;73168;-58
2023/09/23 11:08:16;;;;;;;;;;;;;;;19.92;64.70;100600.06;104848;1291;61137;-57
2023/09/23 11:11:02;;;;;;;;;;;;;;;20.20;63.96;100604.27;104715;1292;61532;-56
2023/09/23 11:13:49;;;;;;;;;;;;;;;20.35;63.98;100602.38;104718;1292;76084;-57
2023/09/23 11:16:35;;;;;;;;;;;;;;;20.48;64.12;100598.33;104694;1292;67343;-57
2023/09/23 11:19:21;;;;;;;;;;;;;;;20.27;63.03;100595.29;104702;1293;71305;-57
2023/09/23 11:22:08;;;;;;;;;;;;;;;20.20;62.79;100606.77;104693;1292;61343;-57
2023/09/23 11:24:55;;;;;;;;;;;;;;;20.32;63.32;100608.51;104716;1292;61192;-57
2023/09/23 11:27:47;;;;;;;;;;;;;;;20.80;63.86;100607.31;106083;1292;73848;-58
2023/09/23 11:30:32;;;;;;;;;;;;;;;21.15;62.52;100608.72;106078;1292;67449;-58
2023/09/23 11:33:18;;;;;;;;;;;;;;;21.16;61.43;100615.50;106079;1292;71506;-58
2023/09/23 11:36:04;;;;;;;;;;;;;;;20.82;61.90;100621.04;106055;1291;59096;-58
2023/09/23 11:38:50;;;;;;;;;;;;;;;20.77;61.02;100622.89;106057;1291;59957;-58
2023/09/23 11:41:37;;;;;;;;;;;;;;;20.77;62.01;100622.90;106032;1292;73136;-57
2023/09/23 11:44:23;;;;;;;;;;;;;;;20.56;60.89;100629.59;106054;1291;67151;-57
2023/09/23 11:47:10;;;;;;;;;;;;;;;20.59;61.68;100634.63;106053;1292;71663;-57
2023/09/23 11:49:56;;;;;;;;;;;;;;;20.80;61.91;100640.80;106064;1292;59320;-57
2023/09/23 11:52:41;;;;;;;;;;;;;;;21.82;60.27;100643.03;106016;1292;58681;-58
2023/09/23 11:55:29;;;;;;;;;;;;;;;21.68;60.24;100635.33;106050;1291;73435;-58
2023/09/23 11:58:15;;;;;;;;;;;;;;;21.46;61.31;100633.85;106069;1291;68687;-57
2023/09/23 12:01:02;;;;;;;;;;;;;;;21.60;60.84;100639.30;106044;1291;71445;-58
2023/09/23 12:03:48;;;;;;;;;;;;;;;21.67;59.56;100639.73;105974;1292;59261;-58
2023/09/23 12:06:35;;;;;;;;;;;;;;;22.02;59.53;100639.32;106078;1292;59032;-57
2023/09/23 12:09:23;;;;;;;;;;;;;;;22.13;57.75;100637.55;106059;1293;74532;-58
2023/09/23 12:12:12;;;;;;;;;;;;;;;22.07;58.83;100637.09;102212;1291;5052524;-57
2023/09/23 12:14:58;;;;;;;;;;;;;;;22.19;59.46;100637.55;106062;1291;71544;-57
2023/09/23 12:17:44;;;;;;;;;;;;;;;22.01;59.14;100638.86;106061;1291;59233;-58
2023/09/23 12:20:29;;;;;;;;;;;;;;;21.63;58.39;100639.83;105952;1291;74922;-57
2023/09/23 12:23:16;;;;;;;;;;;;;;;21.19;58.35;100642.35;104767;1292;75986;-55
2023/09/23 12:26:03;;;;;;;;;;;;;;;20.76;58.72;100647.81;104785;1292;70004;-57
2023/09/23 12:28:49;;;;;;;;;;;;;;;20.51;57.66;100657.38;104715;1292;72128;-57
2023/09/23 12:31:35;;;;;;;;;;;;;;;20.13;57.90;100659.30;104682;1292;59706;-56
2023/09/23 12:34:21;;;;;;;;;;;;;;;19.91;58.60;100659.98;104801;1291;61139;-56
2023/09/23 12:37:08;;;;;;;;;;;;;;;19.70;58.40;100662.02;104776;1292;72380;-55
2023/09/23 12:39:57;;;;;;;;;;;;;;;19.52;58.46;100666.98;104779;1291;69511;-58
2023/09/23 12:42:43;;;;;;;;;;;;;;;19.29;59.05;100672.16;104774;1290;71189;-56
2023/09/23 12:45:30;;;;;;;;;;;;;;;19.27;59.30;100669.81;104780;1291;61327;-57
2023/09/23 12:48:16;;;;;;;;;;;;;;;19.10;58.62;100669.15;104806;1292;61947;-57
2023/09/23 12:51:02;;;;;;;;;;;;;;;18.97;58.87;100671.19;104780;1292;73572;-56
2023/09/23 12:53:48;;;;;;;;;;;;;;;18.95;58.41;100676.71;104837;1292;67596;-56
2023/09/23 12:56:36;;;;;;;;;;;;;;;19.14;58.85;100680.65;104801;1291;71311;-55
2023/09/23 12:59:22;;;;;;;;;;;;;;;19.28;57.85;100686.19;104784;1291;61157;-56
2023/09/23 13:02:09;;;;;;;;;;;;;;;19.33;58.21;100685.56;104731;1292;61142;-57
2023/09/23 13:04:55;;;;;;;;;;;;;;;19.31;57.76;100688.48;104750;1292;73199;-57
2023/09/23 13:07:41;;;;;;;;;;;;;;;19.32;58.18;100696.65;104785;1291;67143;-56
2023/09/23 13:10:27;;;;;;;;;;;;;;;19.27;58.26;100699.55;104760;1292;73964;-57
2023/09/23 13:13:13;;;;;;;;;;;;;;;19.20;58.17;100701.80;104779;1291;61184;-56
2023/09/23 13:16:01;;;;;;;;;;;;;;;19.18;58.28;100705.42;104795;1292;61223;-55
2023/09/23 13:18:47;;;;;;;;;;;;;;;19.19;58.78;100706.07;104734;1291;73672;-56
2023/09/23 13:21:33;;;;;;;;;;;;;;;19.24;58.43;100706.34;104696;1292;67411;-56
2023/09/23 13:24:19;;;;;;;;;;;;;;;19.24;58.19;100715.94;104723;1291;71457;-56
2023/09/23 13:27:06;;;;;;;;;;;;;;;19.08;56.95;100723.94;104688;1292;61580;-55
2023/09/23 13:29:52;;;;;;;;;;;;;;;18.91;57.81;100723.20;104659;1292;61215;-56
2023/09/23 13:32:39;;;;;;;;;;;;;;;19.02;57.83;100724.01;104725;1292;73164;-55
2023/09/23 13:35:25;;;;;;;;;;;;;;;19.02;57.56;100720.72;104733;1292;69334;-56
2023/09/23 13:38:11;;;;;;;;;;;;;;;19.07;56.68;100719.92;104688;1295;71841;-56
2023/09/23 13:41:00;;;;;;;;;;;;;;;19.10;56.17;100723.31;104672;1292;61094;-54
2023/09/23 13:43:46;;;;;;;;;;;;;;;19.09;56.56;100731.21;104712;1292;61171;-55
2023/09/23 13:46:36;;;;;;;;;;;;;;;19.21;56.43;100751.27;104653;1291;73267;-55
2023/09/23 13:49:22;;;;;;;;;;;;;;;19.10;56.68;100753.19;104721;1292;67381;-54
2023/09/23 13:52:09;;;;;;;;;;;;;;;18.94;56.56;100756.95;104735;1291;72412;-56
2023/09/23 13:54:55;;;;;;;;;;;;;;;18.74;56.44;100759.63;104572;1291;61212;-54
2023/09/23 13:57:41;;;;;;;;;;;;;;;18.47;56.28;100760.02;104712;1291;63880;-54
2023/09/23 14:00:28;;;;;;;;;;;;;;;18.30;57.11;100767.78;104708;1292;73345;-55
2023/09/23 14:03:18;;;;;;;;;;;;;;;18.19;56.74;100768.45;104808;1291;67287;-55
2023/09/23 14:06:04;;;;;;;;;;;;;;;18.17;57.19;100768.56;104705;1292;72556;-55